logo dgac
Miércoles 22 de Mayo del 2019
Buscar por aerodromo o helipuerto
Ingrese nombre de aeródromo, localidad o designador OACI:
TAF: TAF SCJO 211503Z 2115/2124 VRB03KT 5000 -DZ OVC005 TN06/2115Z TX11/2119Z BECMG 2117/2119 18005KT 9999 NSW BKN012 BECMG 2121/2123 SCT020
TAF del 21/05/2019 a las 15:03 UTC
Período de validez: desde el 21 a las 15:00 UTC hasta el 21 a las 24:00 UTC
Viento: dirección variable, velocidad 3 nudos
Visibilidad: 5000 metros
Débil LLovizna
Nubes: Cubierto a 500 pies sobre el nivel del aeródromo
Temperatura mínima: 6ºC el 21 a las 15:00 UTC
Temperatura máxima: 11ºC el 21 a las 19:00 UTC
Se espera un cambio entre las 17:00 UTC del 21 y las 19:00 UTC del 21, :
Viento: dirección 180 grados, velocidad 5 nudos
Visibilidad: 10 km o más
No significant weather phenomena are observed at present
Nubes: Nublado a 1200 pies sobre el nivel del aeródromo
Se espera un cambio entre las 21:00 UTC del 21 y las 23:00 UTC del 21, :
Nubes: Nubosidad parcial a 2000 pies sobre el nivel del aeródromo